Time;durP1;ratioP1;P1;durP2;ratioP2;P2;SDS_P1;SDS_P2;PMS_P1;PMS_P2;Temp;Humidity;BMP_temperature;BMP_pressure;BME280_temperature;BME280_humidity;BME280_pressure;Samples;Min_cycle;Max_cycle;Signal;HPM_P1;HPM_P2
2022/10/07 00:00:49;;;;;;;1.30;1.30;;;20.30;70.50;;;;;;5088488;27;43486;-72
2022/10/07 00:03:17;;;;;;;1.00;1.00;;;20.20;70.60;;;;;;5088480;27;43941;-73
2022/10/07 00:05:45;;;;;;;1.20;1.20;;;20.20;70.80;;;;;;5089139;27;43911;-73
2022/10/07 00:08:13;;;;;;;1.30;1.30;;;20.20;71.30;;;;;;5088863;27;43589;-72
2022/10/07 00:10:42;;;;;;;1.33;1.33;;;20.20;71.20;;;;;;5086061;28;45016;-73
2022/10/07 00:13:10;;;;;;;1.20;1.20;;;20.20;70.90;;;;;;5088780;27;43426;-73
2022/10/07 00:15:38;;;;;;;1.40;1.40;;;20.10;70.80;;;;;;5088411;28;43483;-73
2022/10/07 00:18:08;;;;;;;1.40;1.40;;;20.10;71.00;;;;;;5088782;27;43626;-73
2022/10/07 00:20:38;;;;;;;1.63;1.60;;;20.10;71.50;;;;;;5088356;27;43396;-73
2022/10/07 00:23:05;;;;;;;1.50;1.50;;;20.20;71.40;;;;;;5087961;27;43402;-74
2022/10/07 00:25:35;;;;;;;1.67;1.67;;;20.30;71.00;;;;;;5088164;27;43413;-74
2022/10/07 00:28:03;;;;;;;1.87;1.77;;;20.40;70.40;;;;;;5087907;28;43611;-72
2022/10/07 00:30:31;;;;;;;1.60;1.60;;;20.50;69.80;;;;;;5088283;27;43973;-75
2022/10/07 00:32:59;;;;;;;1.90;1.90;;;20.60;69.80;;;;;;5085975;28;43553;-73
2022/10/07 00:35:29;;;;;;;1.80;1.80;;;20.60;69.70;;;;;;5088384;27;44053;-73
2022/10/07 00:37:58;;;;;;;1.73;1.73;;;20.50;69.60;;;;;;5097839;27;45344;-72
2022/10/07 00:40:26;;;;;;;2.13;2.00;;;20.40;69.80;;;;;;5083489;28;43503;-73
2022/10/07 00:42:53;;;;;;;2.10;2.10;;;20.30;70.50;;;;;;5081594;28;43453;-73
2022/10/07 00:45:21;;;;;;;1.90;1.90;;;20.30;70.70;;;;;;5118705;27;43497;-73
2022/10/07 00:47:50;;;;;;;2.10;2.00;;;20.30;70.50;;;;;;5082763;28;44128;-72
2022/10/07 00:50:20;;;;;;;2.03;2.00;;;20.30;70.50;;;;;;5084484;27;43468;-73
2022/10/07 00:52:51;;;;;;;2.37;2.27;;;20.20;70.50;;;;;;5085404;28;44006;-73
2022/10/07 00:55:21;;;;;;;2.17;2.07;;;20.20;70.90;;;;;;5088015;27;43805;-73
2022/10/07 00:57:49;;;;;;;2.23;2.13;;;20.10;71.20;;;;;;5086236;28;45678;-72
2022/10/07 01:00:17;;;;;;;2.30;2.20;;;20.20;71.00;;;;;;5086306;28;44896;-72
2022/10/07 01:02:47;;;;;;;2.30;2.20;;;20.20;70.90;;;;;;5086883;28;43417;-73
2022/10/07 01:05:15;;;;;;;2.37;2.30;;;20.10;70.80;;;;;;5088060;28;43420;-73
2022/10/07 01:07:43;;;;;;;2.10;2.07;;;20.10;71.00;;;;;;5087826;27;43870;-72
2022/10/07 01:10:14;;;;;;;2.60;2.50;;;20.10;71.50;;;;;;5086240;28;44197;-74
2022/10/07 01:12:48;;;;;;;2.50;2.30;;;20.10;71.20;;;;;;5086102;28;43456;-73
2022/10/07 01:15:18;;;;;;;2.40;2.30;;;20.30;71.00;;;;;;5082514;28;43533;-73
2022/10/07 01:17:50;;;;;;;2.60;2.50;;;20.40;70.30;;;;;;5087331;28;43851;-73
2022/10/07 01:20:31;;;;;;;2.27;2.17;;;20.50;70.00;;;;;;5086941;27;44124;-73
2022/10/07 01:23:22;;;;;;;2.47;2.37;;;20.50;69.80;;;;;;5097279;27;43481;-72
2022/10/07 01:26:03;;;;;;;2.20;2.10;;;20.50;69.80;;;;;;5082747;28;43620;-72
2022/10/07 01:28:34;;;;;;;2.17;2.17;;;20.40;70.00;;;;;;5086959;27;43991;-72
2022/10/07 01:31:03;;;;;;;1.80;1.80;;;20.30;70.30;;;;;;5087479;27;43860;-72
2022/10/07 01:33:32;;;;;;;2.10;2.10;;;20.20;70.70;;;;;;5085606;28;43568;-73
2022/10/07 01:36:04;;;;;;;1.90;1.90;;;20.20;70.60;;;;;;5087021;27;43618;-73
2022/10/07 01:38:32;;;;;;;2.50;2.40;;;20.20;70.50;;;;;;5087066;27;43912;-72
2022/10/07 01:41:03;;;;;;;2.30;2.20;;;20.20;70.60;;;;;;5085701;28;43480;-72
2022/10/07 01:43:33;;;;;;;2.20;2.10;;;20.10;70.70;;;;;;5085414;28;43484;-73
2022/10/07 01:46:01;;;;;;;2.40;2.30;;;20.10;71.20;;;;;;5087089;28;43537;-73
2022/10/07 01:48:31;;;;;;;1.90;1.90;;;20.20;71.10;;;;;;5095183;27;45455;-72
2022/10/07 01:51:01;;;;;;;1.90;1.90;;;20.20;70.70;;;;;;5119563;27;44730;-73
2022/10/07 01:53:36;;;;;;;2.10;2.10;;;20.30;70.60;;;;;;5087227;27;43367;-73
2022/10/07 01:56:16;;;;;;;2.20;2.10;;;20.30;70.30;;;;;;5081452;28;43561;-73
2022/10/07 01:59:06;;;;;;;2.23;2.13;;;20.30;70.80;;;;;;5114645;27;46424;-74
2022/10/07 02:01:37;;;;;;;2.13;2.13;;;20.20;70.70;;;;;;5085108;28;44876;-72
2022/10/07 02:04:12;;;;;;;2.00;2.00;;;20.20;70.50;;;;;;5085287;28;43589;-74
2022/10/07 02:06:43;;;;;;;2.13;2.10;;;20.20;70.50;;;;;;5085773;28;43576;-71
2022/10/07 02:09:15;;;;;;;2.37;2.27;;;20.20;70.60;;;;;;5086910;28;43905;-74
2022/10/07 02:11:43;;;;;;;1.90;1.90;;;20.10;71.20;;;;;;5085096;28;44857;-72
2022/10/07 02:14:14;;;;;;;2.10;2.00;;;20.10;71.10;;;;;;5085358;28;43438;-72
2022/10/07 02:16:43;;;;;;;1.97;1.97;;;20.10;70.80;;;;;;5085414;27;43604;-73
2022/10/07 02:19:14;;;;;;;1.97;1.97;;;20.10;70.80;;;;;;5083746;28;44220;-74
2022/10/07 02:21:42;;;;;;;1.83;1.83;;;20.10;70.90;;;;;;5085120;28;44927;-73
2022/10/07 02:24:10;;;;;;;2.00;2.00;;;20.00;71.20;;;;;;5081442;28;43434;-72
2022/10/07 02:26:38;;;;;;;1.77;1.77;;;20.10;71.40;;;;;;5085426;27;43538;-72
2022/10/07 02:29:07;;;;;;;2.00;1.97;;;20.20;71.20;;;;;;5084751;27;44126;-72
2022/10/07 02:31:40;;;;;;;1.70;1.70;;;20.30;70.40;;;;;;5084925;28;43486;-73
2022/10/07 02:34:09;;;;;;;2.10;2.10;;;20.40;69.90;;;;;;5084749;28;43352;-74
2022/10/07 02:36:40;;;;;;;2.00;2.00;;;20.50;69.90;;;;;;5084915;28;43886;-73
2022/10/07 02:39:08;;;;;;;1.80;1.70;;;20.40;69.70;;;;;;5086045;28;43655;-74
2022/10/07 02:41:40;;;;;;;2.20;2.10;;;20.40;69.90;;;;;;5086225;27;43397;-72
2022/10/07 02:44:15;;;;;;;2.20;2.10;;;20.30;70.10;;;;;;5079846;28;43412;-72
2022/10/07 02:46:47;;;;;;;1.60;1.60;;;20.20;70.60;;;;;;5085641;28;43449;-74
2022/10/07 02:49:17;;;;;;;2.10;2.00;;;20.20;70.80;;;;;;5084337;28;46119;-72
2022/10/07 02:51:47;;;;;;;1.70;1.70;;;20.20;70.60;;;;;;5084571;28;44606;-71
2022/10/07 02:54:18;;;;;;;1.90;1.90;;;20.10;70.50;;;;;;5084582;28;43401;-73
2022/10/07 02:56:45;;;;;;;1.73;1.73;;;20.10;70.60;;;;;;5086782;27;43407;-73
2022/10/07 02:59:13;;;;;;;1.77;1.77;;;20.10;71.10;;;;;;5085100;27;45616;-73
2022/10/07 03:01:44;;;;;;;1.80;1.80;;;20.10;71.30;;;;;;5089172;28;43573;-73
2022/10/07 03:04:17;;;;;;;1.67;1.67;;;20.10;70.90;;;;;;5088682;27;43494;-72
2022/10/07 03:06:45;;;;;;;1.87;1.77;;;20.00;70.80;;;;;;5088554;28;43590;-71
2022/10/07 03:09:13;;;;;;;1.80;1.70;;;20.00;70.80;;;;;;5087891;28;45732;-72
2022/10/07 03:11:42;;;;;;;1.77;1.77;;;20.00;71.10;;;;;;5081658;28;43456;-72
2022/10/07 03:14:10;;;;;;;1.80;1.80;;;20.00;71.40;;;;;;5087353;28;43966;-73
2022/10/07 03:16:38;;;;;;;1.80;1.80;;;20.10;71.10;;;;;;5087156;28;43410;-74
2022/10/07 03:19:06;;;;;;;1.70;1.70;;;20.20;70.50;;;;;;5081470;28;45774;-73
2022/10/07 03:21:43;;;;;;;1.60;1.60;;;20.30;70.30;;;;;;5082332;28;44484;-73
2022/10/07 03:24:13;;;;;;;1.70;1.70;;;20.30;70.10;;;;;;5088278;28;43472;-73
2022/10/07 03:26:45;;;;;;;1.50;1.50;;;20.30;70.20;;;;;;5087953;28;43532;-73
2022/10/07 03:29:14;;;;;;;1.60;1.60;;;20.20;70.30;;;;;;5087935;28;44784;-73
2022/10/07 03:31:43;;;;;;;1.83;1.80;;;20.30;70.40;;;;;;5089324;28;43897;-74
2022/10/07 03:34:11;;;;;;;1.77;1.77;;;20.30;70.20;;;;;;5088068;28;43375;-73
2022/10/07 03:36:43;;;;;;;1.70;1.60;;;20.20;70.20;;;;;;5087677;28;43388;-74
2022/10/07 03:39:12;;;;;;;1.60;1.60;;;20.20;70.30;;;;;;5087983;28;43832;-73
2022/10/07 03:41:41;;;;;;;1.50;1.50;;;20.10;70.90;;;;;;5087771;28;44041;-74
2022/10/07 03:44:10;;;;;;;1.97;1.87;;;20.10;70.80;;;;;;5087646;28;43889;-72
2022/10/07 03:46:38;;;;;;;1.93;1.93;;;20.10;70.60;;;;;;5084920;28;43477;-73
2022/10/07 03:49:07;;;;;;;2.37;2.10;;;20.10;70.70;;;;;;5086814;28;45388;-72
2022/10/07 03:51:35;;;;;;;3.03;2.50;;;20.00;70.70;;;;;;5087269;28;44733;-73
2022/10/07 03:54:07;;;;;;;4.10;3.27;;;20.00;71.10;;;;;;5121585;27;43413;-73
2022/10/07 03:56:35;;;;;;;8.20;3.20;;;20.10;71.30;;;;;;5087551;28;43414;-73
2022/10/07 03:59:03;;;;;;;7.97;3.60;;;20.20;70.80;;;;;;5120620;27;45679;-72
2022/10/07 04:01:32;;;;;;;5.83;3.60;;;20.30;70.30;;;;;;5121488;27;43462;-73
2022/10/07 04:04:01;;;;;;;8.70;3.47;;;20.40;69.70;;;;;;5086288;28;43441;-73
2022/10/07 04:06:33;;;;;;;6.97;3.37;;;20.50;69.50;;;;;;5087617;28;43442;-73
2022/10/07 04:09:06;;;;;;;6.60;3.60;;;20.50;69.40;;;;;;5086228;28;44032;-73
2022/10/07 04:11:34;;;;;;;4.40;3.67;;;20.40;69.40;;;;;;5085993;27;44371;-72
2022/10/07 04:14:03;;;;;;;8.07;4.00;;;20.40;69.70;;;;;;5087225;28;43352;-72
2022/10/07 04:16:32;;;;;;;9.57;4.20;;;20.30;70.30;;;;;;5087199;28;43498;-74
2022/10/07 04:19:06;;;;;;;8.10;4.10;;;20.20;70.30;;;;;;5080443;28;44812;-73
2022/10/07 04:21:34;;;;;;;6.90;3.67;;;20.20;70.90;;;;;;5082009;28;43531;-73
2022/10/07 04:24:04;;;;;;;8.03;3.73;;;20.20;70.30;;;;;;5087075;28;43942;-73
2022/10/07 04:26:33;;;;;;;7.50;4.33;;;20.10;70.30;;;;;;5086793;28;44067;-72
2022/10/07 04:29:02;;;;;;;9.73;4.20;;;20.10;70.80;;;;;;5086603;28;45633;-73
2022/10/07 04:31:30;;;;;;;7.40;3.83;;;20.10;70.90;;;;;;5086766;28;43496;-73
2022/10/07 04:34:03;;;;;;;6.53;3.70;;;20.10;70.70;;;;;;5086545;28;43452;-73
2022/10/07 04:36:35;;;;;;;5.57;3.70;;;20.10;70.70;;;;;;5085550;28;43379;-73
2022/10/07 04:39:07;;;;;;;5.23;3.90;;;20.00;70.60;;;;;;5086487;28;45875;-73
2022/10/07 04:41:39;;;;;;;7.47;4.30;;;20.00;70.90;;;;;;5086426;28;43464;-73
2022/10/07 04:44:13;;;;;;;4.30;3.80;;;20.00;71.20;;;;;;5086754;27;43411;-72
2022/10/07 04:46:50;;;;;;;7.47;3.93;;;20.10;70.90;;;;;;5086520;28;43454;-73
2022/10/07 04:49:18;;;;;;;5.87;4.10;;;20.20;70.50;;;;;;5085969;28;45270;-72
2022/10/07 04:51:47;;;;;;;7.30;3.60;;;20.20;70.20;;;;;;5086094;28;44695;-72
2022/10/07 04:54:15;;;;;;;7.17;3.93;;;20.30;70.10;;;;;;5086379;28;43939;-73
2022/10/07 04:56:53;;;;;;;7.33;3.97;;;20.20;70.30;;;;;;5086758;28;43584;-73
2022/10/07 04:59:24;;;;;;;6.30;4.13;;;20.20;71.10;;;;;;5085972;28;45651;-73
2022/10/07 05:01:57;;;;;;;6.07;3.53;;;20.20;70.30;;;;;;5080249;28;43883;-72
2022/10/07 05:04:26;;;;;;;4.90;3.63;;;20.20;70.30;;;;;;5086651;28;43385;-72
2022/10/07 05:06:55;;;;;;;7.20;4.03;;;20.10;70.30;;;;;;5086168;28;43470;-73
2022/10/07 05:09:25;;;;;;;5.23;3.80;;;20.10;70.60;;;;;;5103426;27;45833;-73
2022/10/07 05:11:55;;;;;;;5.40;3.87;;;20.10;70.90;;;;;;5087300;27;44022;-73
2022/10/07 05:14:23;;;;;;;3.43;3.13;;;20.10;70.70;;;;;;5086288;28;43389;-72
2022/10/07 05:16:52;;;;;;;4.33;3.63;;;20.10;70.60;;;;;;5086272;27;43465;-73
2022/10/07 05:19:24;;;;;;;6.43;3.83;;;20.00;70.70;;;;;;5086178;28;43829;-73
2022/10/07 05:21:53;;;;;;;5.87;3.97;;;20.00;70.80;;;;;;5085808;28;43529;-73
2022/10/07 05:24:21;;;;;;;6.00;3.90;;;20.00;71.20;;;;;;5087253;27;44147;-73
2022/10/07 05:26:50;;;;;;;5.07;3.63;;;20.10;71.00;;;;;;5086095;28;43566;-73
2022/10/07 05:29:19;;;;;;;6.60;3.87;;;20.20;70.60;;;;;;5087174;28;43758;-72
2022/10/07 05:31:50;;;;;;;4.50;3.93;;;20.30;70.00;;;;;;5085603;28;43964;-72
2022/10/07 05:34:22;;;;;;;4.67;3.47;;;20.40;69.80;;;;;;5085995;28;43362;-73
2022/10/07 05:36:52;;;;;;;3.73;3.20;;;20.40;69.60;;;;;;5081906;28;43572;-73
2022/10/07 05:39:20;;;;;;;4.17;3.17;;;20.30;69.60;;;;;;5084755;28;45600;-74
2022/10/07 05:42:04;;;;;;;4.53;3.77;;;20.30;69.80;;;;;;5086249;28;43561;-72
2022/10/07 05:44:40;;;;;;;4.37;3.20;;;20.20;70.10;;;;;;5082367;28;43528;-72
2022/10/07 05:47:07;;;;;;;4.57;3.43;;;20.10;71.20;;;;;;5087679;28;43408;-72
2022/10/07 05:49:36;;;;;;;4.20;3.60;;;20.10;70.40;;;;;;5086973;27;43866;-74
2022/10/07 05:52:06;;;;;;;3.70;3.40;;;20.10;70.40;;;;;;5085535;28;43381;-72
2022/10/07 05:54:34;;;;;;;3.70;3.40;;;20.10;70.50;;;;;;5085997;28;43482;-73
2022/10/07 05:57:03;;;;;;;4.77;3.50;;;20.00;70.50;;;;;;5086147;28;43521;-74
2022/10/07 05:59:31;;;;;;;3.60;3.30;;;20.00;71.10;;;;;;5085684;28;45425;-72
2022/10/07 06:02:01;;;;;;;3.63;3.33;;;20.00;70.80;;;;;;5084959;28;44731;-73
2022/10/07 06:04:30;;;;;;;3.20;2.90;;;20.10;70.40;;;;;;5085662;28;43441;-73
2022/10/07 06:06:58;;;;;;;3.47;3.17;;;20.20;70.30;;;;;;5085874;28;43946;-73
2022/10/07 06:15:08;;;;;;;3.60;3.10;;;20.20;70.50;;;;;;5085369;28;43418;-73
2022/10/07 06:17:43;;;;;;;3.70;3.40;;;20.10;70.20;;;;;;5085563;28;43611;-72
2022/10/07 06:20:14;;;;;;;3.47;3.20;;;20.10;70.20;;;;;;5085184;28;46993;-74
2022/10/07 06:22:43;;;;;;;4.43;3.60;;;20.10;70.40;;;;;;5085588;28;44584;-73
2022/10/07 06:25:12;;;;;;;3.60;3.30;;;20.00;70.80;;;;;;5081718;28;43481;-73
2022/10/07 06:27:41;;;;;;;3.60;3.30;;;20.00;70.90;;;;;;5085493;28;43595;-73
2022/10/07 06:30:09;;;;;;;2.97;2.80;;;20.00;70.60;;;;;;5084441;27;43955;-73
2022/10/07 06:32:37;;;;;;;3.20;3.00;;;20.00;70.60;;;;;;5086731;28;43990;-73
2022/10/07 06:35:08;;;;;;;4.47;3.13;;;20.00;70.70;;;;;;5084599;28;43857;-73
2022/10/07 06:37:38;;;;;;;3.33;3.07;;;19.90;70.90;;;;;;5083039;28;43485;-72
2022/10/07 06:40:08;;;;;;;3.57;3.27;;;20.00;71.20;;;;;;5084951;28;44031;-72
2022/10/07 06:42:36;;;;;;;3.30;3.10;;;20.00;70.80;;;;;;5086650;27;43447;-73
2022/10/07 06:45:24;;;;;;;3.50;3.20;;;20.10;70.40;;;;;;5084881;28;43363;-73
2022/10/07 06:47:53;;;;;;;2.90;2.70;;;20.20;70.20;;;;;;5119322;27;43596;-73
2022/10/07 06:50:24;;;;;;;3.43;3.13;;;20.20;70.00;;;;;;5078792;28;46374;-73
2022/10/07 06:52:52;;;;;;;3.43;3.00;;;20.20;70.40;;;;;;5084570;28;44472;-72
2022/10/07 06:55:21;;;;;;;3.40;3.10;;;20.20;70.30;;;;;;5085112;28;43929;-73
2022/10/07 06:57:48;;;;;;;3.67;3.30;;;20.20;70.20;;;;;;5084380;28;43612;-72
2022/10/07 07:00:19;;;;;;;2.83;2.70;;;20.10;70.10;;;;;;5084611;28;45681;-72
2022/10/07 07:02:48;;;;;;;3.20;2.90;;;20.00;70.10;;;;;;5084995;28;44582;-73
2022/10/07 07:05:16;;;;;;;3.20;3.00;;;20.00;70.70;;;;;;5084607;28;43457;-72
2022/10/07 07:07:47;;;;;;;3.10;2.90;;;20.00;70.70;;;;;;5085014;28;44005;-73
2022/10/07 07:10:16;;;;;;;3.00;2.80;;;20.00;70.60;;;;;;5081785;28;44031;-72
2022/10/07 07:12:47;;;;;;;2.67;2.47;;;20.00;70.50;;;;;;5084343;28;44550;-72
2022/10/07 07:15:17;;;;;;;3.10;2.90;;;19.90;70.60;;;;;;5084756;28;43489;-73
2022/10/07 07:17:45;;;;;;;3.67;3.10;;;19.90;70.90;;;;;;5084662;28;43919;-73
2022/10/07 07:20:13;;;;;;;3.50;3.23;;;19.90;71.00;;;;;;5086159;28;44589;-72
2022/10/07 07:22:42;;;;;;;3.03;2.83;;;20.00;70.80;;;;;;5086087;27;43458;-73
2022/10/07 07:25:12;;;;;;;2.97;2.77;;;20.20;70.30;;;;;;5078844;28;43427;-73
2022/10/07 07:27:40;;;;;;;2.77;2.57;;;20.30;69.80;;;;;;5084912;27;43441;-72
2022/10/07 07:30:10;;;;;;;2.87;2.67;;;20.30;69.50;;;;;;5084260;28;46102;-74
2022/10/07 07:32:39;;;;;;;2.90;2.70;;;20.30;69.40;;;;;;5084440;28;44479;-72
2022/10/07 07:35:08;;;;;;;2.80;2.70;;;20.30;69.50;;;;;;5084368;28;43944;-73
2022/10/07 07:37:36;;;;;;;2.23;2.13;;;20.20;69.70;;;;;;5084332;28;44914;-72
2022/10/07 07:40:04;;;;;;;2.63;2.53;;;20.10;70.00;;;;;;5080883;28;44034;-73
2022/10/07 07:42:36;;;;;;;3.03;2.53;;;20.10;70.40;;;;;;5083973;28;43533;-73
2022/10/07 07:45:06;;;;;;;2.50;2.40;;;20.00;70.30;;;;;;5115995;27;43345;-73
2022/10/07 07:47:34;;;;;;;2.63;2.53;;;20.00;70.30;;;;;;5088135;28;43960;-72
2022/10/07 07:50:04;;;;;;;2.70;2.60;;;20.00;70.40;;;;;;5087384;28;44803;-73
2022/10/07 07:52:33;;;;;;;2.73;2.63;;;20.00;70.60;;;;;;5087589;28;44436;-72
2022/10/07 07:55:03;;;;;;;2.70;2.60;;;19.90;70.90;;;;;;5087101;28;43408;-73
2022/10/07 07:57:32;;;;;;;2.70;2.50;;;19.90;70.80;;;;;;5087690;28;43606;-73
2022/10/07 08:00:06;;;;;;;2.43;2.33;;;19.90;70.70;;;;;;5087478;28;43912;-73
2022/10/07 08:02:40;;;;;;;2.83;2.63;;;19.90;70.70;;;;;;5086614;27;44117;-72
2022/10/07 08:05:12;;;;;;;2.60;2.50;;;19.90;70.80;;;;;;5087789;28;43403;-72
2022/10/07 08:07:41;;;;;;;2.60;2.37;;;19.90;71.20;;;;;;5089716;27;43478;-73
2022/10/07 08:10:10;;;;;;;2.73;2.53;;;19.90;71.20;;;;;;5087182;28;43926;-73
2022/10/07 08:12:39;;;;;;;2.80;2.70;;;20.00;70.70;;;;;;5087397;28;43367;-74
2022/10/07 08:15:10;;;;;;;2.70;2.50;;;20.10;70.30;;;;;;5081616;28;43427;-73
2022/10/07 08:17:39;;;;;;;2.70;2.50;;;20.30;70.60;;;;;;5087585;28;44166;-72
2022/10/07 08:20:09;;;;;;;2.20;2.10;;;20.30;69.60;;;;;;5086927;28;46332;-73
2022/10/07 08:22:38;;;;;;;2.43;2.33;;;20.30;69.60;;;;;;5084408;28;43499;-72
2022/10/07 08:25:07;;;;;;;2.07;2.00;;;20.20;69.60;;;;;;5087031;28;43434;-73
2022/10/07 08:27:35;;;;;;;2.30;2.20;;;20.20;70.70;;;;;;5087184;27;43905;-73
2022/10/07 08:30:05;;;;;;;2.83;2.67;;;20.10;70.40;;;;;;5086795;28;45446;-73
2022/10/07 08:32:35;;;;;;;2.40;2.30;;;20.00;70.50;;;;;;5086957;28;43434;-73
2022/10/07 08:35:03;;;;;;;2.10;2.00;;;20.00;71.20;;;;;;5088366;27;43429;-73
2022/10/07 08:37:31;;;;;;;2.40;2.30;;;20.00;71.20;;;;;;5088483;28;43500;-72
2022/10/07 08:39:59;;;;;;;2.40;2.30;;;20.00;70.60;;;;;;5087904;27;44446;-74
2022/10/07 08:42:29;;;;;;;2.20;2.10;;;19.90;70.70;;;;;;5088108;27;43489;-73
2022/10/07 08:44:58;;;;;;;2.40;2.30;;;19.90;71.00;;;;;;5088482;28;43472;-73
2022/10/07 08:47:29;;;;;;;2.10;2.10;;;19.90;70.90;;;;;;5088863;27;43410;-72
2022/10/07 08:50:03;;;;;;;2.30;2.17;;;19.90;70.90;;;;;;5087794;28;43937;-73
2022/10/07 08:52:37;;;;;;;2.10;2.00;;;19.90;70.90;;;;;;5087510;27;44050;-74
2022/10/07 08:55:15;;;;;;;2.20;2.10;;;19.80;70.90;;;;;;5088380;28;43393;-73
2022/10/07 08:57:49;;;;;;;2.40;2.30;;;19.80;71.30;;;;;;5086996;27;43681;-72
2022/10/07 09:00:18;;;;;;;3.83;2.10;;;19.90;71.10;;;;;;5081895;28;43852;-72
2022/10/07 09:02:57;;;;;;;2.10;2.00;;;20.00;70.50;;;;;;5087588;27;43449;-72
2022/10/07 09:05:28;;;;;;;2.30;2.20;;;20.20;70.10;;;;;;5086670;28;43328;-72
2022/10/07 09:07:57;;;;;;;2.10;2.00;;;20.30;69.80;;;;;;5088606;27;44812;-72
2022/10/07 09:10:29;;;;;;;2.10;2.00;;;20.30;69.80;;;;;;5087763;28;43921;-73
2022/10/07 09:12:58;;;;;;;1.97;1.87;;;20.20;69.80;;;;;;5087719;28;43469;-74
2022/10/07 09:15:36;;;;;;;2.30;2.20;;;20.20;70.00;;;;;;5087984;28;43416;-73
2022/10/07 09:18:06;;;;;;;2.00;1.90;;;20.10;70.30;;;;;;5081648;27;44011;-73
2022/10/07 09:20:37;;;;;;;1.80;1.80;;;20.00;70.70;;;;;;5085947;28;43614;-73
2022/10/07 09:23:05;;;;;;;1.87;1.83;;;20.00;70.60;;;;;;5087688;27;43510;-73
2022/10/07 09:25:33;;;;;;;2.10;2.00;;;20.00;70.60;;;;;;5087730;27;43388;-74
2022/10/07 09:28:01;;;;;;;2.00;1.90;;;19.90;70.60;;;;;;5086649;28;43537;-73
2022/10/07 09:30:31;;;;;;;2.13;2.03;;;19.90;70.80;;;;;;5087680;27;43969;-74
2022/10/07 09:32:59;;;;;;;2.07;1.97;;;19.90;71.20;;;;;;5087503;28;43434;-72
2022/10/07 09:35:30;;;;;;;2.07;1.93;;;19.90;71.10;;;;;;5085150;28;43381;-74
2022/10/07 09:38:00;;;;;;;1.80;1.70;;;19.90;71.00;;;;;;5087728;27;44045;-74
2022/10/07 09:40:33;;;;;;;1.90;1.80;;;19.90;71.10;;;;;;5120050;27;45951;-72
2022/10/07 09:43:01;;;;;;;1.90;1.90;;;19.80;71.10;;;;;;5087286;27;44067;-72
2022/10/07 09:45:31;;;;;;;2.00;1.90;;;19.80;71.40;;;;;;5087458;27;43557;-73
2022/10/07 09:48:06;;;;;;;1.90;1.80;;;19.90;71.40;;;;;;5087413;27;43521;-73
2022/10/07 09:50:36;;;;;;;2.00;1.90;;;20.00;71.10;;;;;;5082026;28;43770;-73
2022/10/07 09:53:15;;;;;;;1.90;1.90;;;20.10;70.50;;;;;;5082699;28;43464;-72
2022/10/07 09:55:43;;;;;;;2.07;1.97;;;20.20;70.10;;;;;;5087693;27;43406;-72
2022/10/07 09:58:17;;;;;;;1.87;1.77;;;20.30;69.90;;;;;;5087578;27;43865;-74
2022/10/07 10:00:45;;;;;;;1.97;1.90;;;20.20;70.00;;;;;;5085339;28;45620;-73
2022/10/07 10:03:13;;;;;;;1.53;1.53;;;20.20;70.20;;;;;;5087120;27;43473;-73
2022/10/07 10:05:50;;;;;;;1.83;1.83;;;20.10;70.40;;;;;;5086116;28;43414;-72
2022/10/07 10:08:22;;;;;;;2.00;1.90;;;20.00;70.60;;;;;;5087083;27;43520;-72
2022/10/07 10:10:51;;;;;;;1.57;1.57;;;20.00;70.70;;;;;;5086380;27;43854;-73
2022/10/07 10:13:25;;;;;;;1.70;1.70;;;20.00;70.80;;;;;;5085234;28;44608;-73
2022/10/07 10:15:53;;;;;;;1.77;1.67;;;20.00;71.00;;;;;;5080596;28;43457;-72
2022/10/07 10:18:38;;;;;;;1.63;1.63;;;19.90;71.00;;;;;;5087549;28;43742;-72
2022/10/07 10:21:26;;;;;;;1.83;1.83;;;19.90;71.20;;;;;;5086749;27;43671;-72
2022/10/07 10:23:56;;;;;;;1.80;1.80;;;19.90;71.20;;;;;;5086736;27;43429;-72
2022/10/07 10:26:43;;;;;;;1.60;1.60;;;19.90;71.20;;;;;;5086506;28;43508;-73
2022/10/07 10:29:17;;;;;;;1.67;1.67;;;19.90;71.30;;;;;;5085792;28;43856;-72
2022/10/07 10:32:15;;;;;;;1.73;1.63;;;19.90;71.40;;;;;;5086670;27;44444;-73
2022/10/07 10:34:46;;;;;;;1.63;1.63;;;19.80;71.40;;;;;;5059788;27;44135;-74
2022/10/07 10:37:17;;;;;;;1.93;1.83;;;19.90;71.50;;;;;;5083644;28;43435;-73
2022/10/07 10:39:55;;;;;;;1.70;1.70;;;20.00;71.20;;;;;;5081118;28;43975;-71
2022/10/07 10:42:26;;;;;;;1.50;1.50;;;20.10;70.80;;;;;;5080475;28;44043;-73
2022/10/07 10:45:06;;;;;;;1.83;1.77;;;20.20;70.30;;;;;;5086023;27;43504;-72
2022/10/07 10:47:41;;;;;;;1.47;1.47;;;20.20;70.10;;;;;;5085009;28;43386;-73
2022/10/07 10:50:14;;;;;;;1.73;1.73;;;20.20;70.30;;;;;;5086855;27;43430;-73
2022/10/07 10:52:49;;;;;;;1.60;1.60;;;20.20;70.50;;;;;;5086471;28;44063;-73
2022/10/07 10:55:58;;;;;;;1.50;1.50;;;20.10;70.70;;;;;;5079965;28;43470;-72
2022/10/07 10:58:30;;;;;;;1.60;1.60;;;20.00;70.90;;;;;;5062600;28;43447;-72
2022/10/07 11:01:01;;;;;;;1.60;1.60;;;20.00;71.10;;;;;;5081686;27;43424;-72
2022/10/07 11:03:36;;;;;;;1.40;1.40;;;20.00;71.10;;;;;;5086735;28;44033;-73
2022/10/07 11:06:07;;;;;;;1.57;1.57;;;20.00;71.30;;;;;;5080246;28;43949;-72
2022/10/07 11:08:35;;;;;;;1.63;1.63;;;19.90;71.30;;;;;;5086037;28;43373;-73
2022/10/07 11:11:07;;;;;;;1.77;1.70;;;19.90;71.50;;;;;;5085400;28;43482;-73
2022/10/07 11:13:37;;;;;;;1.30;1.30;;;19.90;71.50;;;;;;5081078;28;43858;-73
2022/10/07 11:16:06;;;;;;;1.40;1.40;;;19.90;71.40;;;;;;5081515;28;43873;-73
2022/10/07 11:18:36;;;;;;;1.50;1.50;;;19.90;71.50;;;;;;5084624;27;43962;-72
2022/10/07 11:21:08;;;;;;;1.70;1.70;;;19.90;71.50;;;;;;5087947;27;43592;-72
2022/10/07 11:23:41;;;;;;;1.60;1.60;;;19.90;71.60;;;;;;5089439;27;43792;-73
2022/10/07 11:26:14;;;;;;;1.60;1.60;;;19.90;71.40;;;;;;5088004;28;44649;-72
2022/10/07 11:28:42;;;;;;;1.50;1.50;;;20.00;71.20;;;;;;5087976;28;43423;-72
2022/10/07 11:31:14;;;;;;;1.50;1.50;;;20.10;70.70;;;;;;5090341;27;43577;-73
2022/10/07 11:33:46;;;;;;;1.87;1.77;;;20.10;70.80;;;;;;5089671;27;43606;-73
2022/10/07 11:36:15;;;;;;;1.83;1.73;;;20.10;70.80;;;;;;5089442;28;43435;-72
2022/10/07 11:38:43;;;;;;;1.60;1.60;;;20.00;70.90;;;;;;5089712;27;44398;-72
2022/10/07 11:41:15;;;;;;;1.33;1.33;;;20.00;70.80;;;;;;5089467;27;43326;-73
2022/10/07 11:43:45;;;;;;;1.40;1.40;;;20.00;70.90;;;;;;5089434;28;43931;-74
2022/10/07 11:46:16;;;;;;;1.47;1.47;;;20.00;71.00;;;;;;5087601;28;44654;-73
2022/10/07 11:48:45;;;;;;;1.63;1.53;;;20.00;71.10;;;;;;5085392;28;43540;-73
2022/10/07 11:51:20;;;;;;;1.47;1.47;;;19.90;71.20;;;;;;5088038;28;43426;-72
2022/10/07 11:53:48;;;;;;;1.53;1.53;;;19.90;71.20;;;;;;5087467;28;45643;-72
2022/10/07 11:56:20;;;;;;;1.47;1.47;;;19.90;71.20;;;;;;5087376;28;44878;-73
2022/10/07 11:58:56;;;;;;;1.40;1.40;;;19.90;71.20;;;;;;5089485;28;43377;-73
2022/10/07 12:01:50;;;;;;;1.40;1.40;;;19.90;71.20;;;;;;5089596;27;43974;-74
2022/10/07 12:04:48;;;;;;;1.50;1.50;;;19.90;71.40;;;;;;5087378;27;43871;-72
2022/10/07 12:07:35;;;;;;;1.40;1.40;;;19.90;71.40;;;;;;5080807;28;43521;-73
2022/10/07 12:10:22;;;;;;;1.40;1.40;;;20.00;70.90;;;;;;5088630;28;43929;-72
2022/10/07 12:12:53;;;;;;;1.60;1.60;;;20.10;70.40;;;;;;5088945;27;43489;-72
2022/10/07 12:15:32;;;;;;;1.40;1.40;;;20.20;70.20;;;;;;5088254;28;43754;-73
2022/10/07 12:18:27;;;;;;;1.53;1.53;;;20.20;70.10;;;;;;5085626;28;43843;-72
2022/10/07 12:21:07;;;;;;;1.40;1.40;;;20.20;70.30;;;;;;5082538;28;43360;-73
2022/10/07 12:23:44;;;;;;;1.50;1.50;;;20.10;70.50;;;;;;5088117;28;43399;-73
2022/10/07 12:26:49;;;;;;;1.37;1.27;;;20.10;70.70;;;;;;5084771;28;43797;-71
2022/10/07 12:29:30;;;;;;;1.30;1.30;;;20.00;70.80;;;;;;5087294;28;43414;-73
2022/10/07 12:31:58;;;;;;;1.43;1.43;;;20.00;70.90;;;;;;5087233;27;43888;-73
2022/10/07 12:34:35;;;;;;;1.30;1.30;;;20.00;71.00;;;;;;5088557;27;43528;-73
2022/10/07 12:37:40;;;;;;;1.33;1.33;;;20.00;71.10;;;;;;5084885;28;45729;-72
2022/10/07 12:40:22;;;;;;;1.20;1.20;;;19.90;71.20;;;;;;5086371;28;43584;-72
2022/10/07 12:43:09;;;;;;;1.20;1.20;;;19.90;71.20;;;;;;5086724;28;43927;-73
2022/10/07 12:45:42;;;;;;;1.50;1.50;;;19.90;71.20;;;;;;5087763;27;43485;-72
2022/10/07 12:48:13;;;;;;;1.50;1.50;;;19.90;71.20;;;;;;5088074;28;43857;-73
2022/10/07 12:50:41;;;;;;;1.30;1.30;;;19.90;71.30;;;;;;5088128;28;43820;-72
2022/10/07 12:53:09;;;;;;;1.40;1.40;;;19.90;71.40;;;;;;5086617;28;43880;-73
2022/10/07 12:55:39;;;;;;;1.30;1.30;;;19.90;71.40;;;;;;5087108;28;44067;-74
2022/10/07 13:01:07;;;;;;;1.30;1.30;;;20.10;70.70;;;;;;5063626;27;43447;-74
2022/10/07 13:03:51;;;;;;;1.33;1.33;;;20.10;70.60;;;;;;5085386;28;43356;-73
2022/10/07 13:06:48;;;;;;;1.20;1.20;;;20.10;70.60;;;;;;5088246;27;43426;-72
2022/10/07 13:09:54;;;;;;;1.50;1.50;;;20.10;70.70;;;;;;5086409;28;46136;-72
2022/10/07 13:12:33;;;;;;;1.30;1.30;;;20.10;70.70;;;;;;5087438;28;43446;-73
2022/10/07 13:15:13;;;;;;;1.40;1.40;;;20.00;70.80;;;;;;5087958;27;43546;-73
2022/10/07 13:17:47;;;;;;;1.30;1.30;;;20.00;70.80;;;;;;5087181;28;43454;-73
2022/10/07 13:20:35;;;;;;;1.40;1.40;;;20.00;71.00;;;;;;5086147;27;43606;-72